Snellman, Minnesota
Current Conditions -  °F | °C
As of 6:13 PM on Sunday 21 Dec 2014 (Local Time) from KPKD Reporting Station
Haze Haze  
Wind Chill: 25°   Ceiling: 300
Heat Index: 33°   Visibility: 3mi
Dew Point: 32°   Wind: 9mph
Humidity: 96%   Direction: 130°SE
Pressure: 29.62"   Gusts: NA
Location:  46.9347°N, 95.2252°W
Report Text: KPKD 220013Z AUTO 13008KT 3SM BR OVC003 01/00 A2962 RMK AO2 T00060000
Loading
Personal Weather Stations






























Interactive Weather Map New forecast layout! Learn more

10-Day Weather Forecast

Advertisements
Track Severe Weather on mobile